Maersk Lota — 9V9777 — position and weather

sailwx.info

Track history (hours):
 
Tides and Currents Weather Stations Pressure Air Temp Water Temp Dewpoint Dewpoint Depression Visibility Wind Speed Wind Dir Waves Ship Positions

Maersk Lota

Last reported at 2018-Jan-05 06:03 UTC. Time now 2018-Jan-18 04:07 UTC.
Position N 26°11' W 015°04'.
Warning: this ship's position is 12 days out of date.

Length 300 m; draft 13 m.

Type: Ship (hazmat cat A). MMSI: 566383000.

Date/timePositionNaut miles runAvg speedWind from/ knotsBaromVisibWave heightAir tempDewpointWater temp
2018-Jan-05 06:03N 26°11' W 015°04'121.0
2018-Jan-05 06:00N 26°11' W 015°03'1120.8
2018-Jan-05 05:30N 26°20' W 014°57'1520.5
2018-Jan-05 04:47N 26°32' W 014°47'620.5
2018-Jan-05 04:30N 26°37' W 014°44'1120.5
2018-Jan-05 03:56N 26°47' W 014°37'1720.4
2018-Jan-05 03:07N 27°01' W 014°26'320.7
2018-Jan-05 02:59N 27°03' W 014°24'1020.7
2018-Jan-05 02:31N 27°11' W 014°18'1020.8
2018-Jan-05 02:00N 27°19' W 014°11'1020.8
2018-Jan-05 01:30N 27°28' W 014°04'1020.6
2018-Jan-05 01:00N 27°36' W 013°58'1020.6
2018-Jan-05 00:30N 27°45' W 013°51'1020.5
2018-Jan-05 00:00N 27°53' W 013°45'1020.6
2018-Jan-04 23:30N 28°02' W 013°38'1020.6
2018-Jan-04 23:00N 28°10' W 013°32'1020.6
2018-Jan-04 22:30N 28°19' W 013°25'1020.6
2018-Jan-04 22:00N 28°27' W 013°18'1020.6
2018-Jan-04 21:31N 28°35' W 013°11'1020.6
2018-Jan-04 21:00N 28°44' W 013°04'1020.4
2018-Jan-04 20:30N 28°52' W 012°58'1020.3
2018-Jan-04 20:00N 29°00' W 012°51'1020.5
2018-Jan-04 19:30N 29°09' W 012°44'1020.3
2018-Jan-04 19:00N 29°17' W 012°38'1019.9
2018-Jan-04 18:30N 29°25' W 012°31'1019.6
2018-Jan-04 18:00N 29°33' W 012°25'1019.5
2018-Jan-04 17:30N 29°41' W 012°18'1019.8
2018-Jan-04 17:00N 29°50' W 012°12'1019.7
2018-Jan-04 16:30N 29°58' W 012°05'1019.5
2018-Jan-04 16:00N 30°05' W 011°58'1019.5
2018-Jan-04 15:31N 30°13' W 011°52'1019.6
2018-Jan-04 15:01N 30°21' W 011°46'1019.6
2018-Jan-04 14:30N 30°30' W 011°39'1019.7
2018-Jan-04 14:00N 30°38' W 011°33'1019.5
2018-Jan-04 13:30N 30°45' W 011°26'1019.5
2018-Jan-04 13:00N 30°53' W 011°19'41919.5
2018-Jan-03 15:28N 35°58' W 005°34'715.9
2018-Jan-03 15:00N 36°01' W 005°26'611.9
2018-Jan-03 14:30N 36°06' W 005°24'1 0.2
2018-Jan-03 06:11N 36°07' W 005°25'1 3.3
2018-Jan-03 06:00N 36°07' W 005°25'1 1.0
2018-Jan-03 05:28N 36°07' W 005°24'0 0.1
2018-Jan-03 04:58N 36°07' W 005°24'0 0.1
2018-Jan-03 04:28N 36°07' W 005°24'0 0.0
2018-Jan-03 03:58N 36°07' W 005°24'0 0.0
2018-Jan-03 03:28N 36°07' W 005°24'0 0.1
2018-Jan-03 02:58N 36°07' W 005°24'0 0.2
2018-Jan-03 02:28N 36°07' W 005°24'0 0.3
2018-Jan-03 01:58N 36°07' W 005°24'0 0.1
2018-Jan-03 01:28N 36°07' W 005°24'0 0.1
2018-Jan-03 00:58N 36°07' W 005°24'0 0.1
2018-Jan-03 00:16N 36°07' W 005°24'0 0.0
2018-Jan-02 23:16N 36°07' W 005°24'0 0.1
2018-Jan-02 22:46N 36°07' W 005°24'0 0.0
2018-Jan-02 22:30N 36°07' W 005°24'0 0.0
2018-Jan-02 22:00N 36°07' W 005°24'0 0.0
2018-Jan-02 21:30N 36°07' W 005°24'0 0.2
2018-Jan-02 21:00N 36°07' W 005°24'1 1.8
2018-Jan-02 20:29N 36°06' W 005°24'3 6.8
2018-Jan-02 20:00N 36°03' W 005°23'611.5
2018-Jan-02 19:30N 35°58' W 005°26'6 0.1
2018-Jan-01 03:03N 35°55' W 005°32'1 3.8
2018-Jan-01 02:46N 35°54' W 005°34'0 0.4
2018-Jan-01 02:28N 35°54' W 005°34'4 2.1
2018-Jan-01 00:30N 35°58' W 005°31'22 6.2
2017-Dec-31 21:00N 36°03' W 005°05'20714.2
2017-Dec-31 06:30N 37°14' W 001°03'1214.4
2017-Dec-31 05:39N 37°22' W 000°52'314.7
2017-Dec-31 05:26N 37°24' W 000°48'614.6
2017-Dec-31 05:00N 37°28' W 000°43'714.3
2017-Dec-31 04:30N 37°33' W 000°36'713.9
2017-Dec-31 04:00N 37°38' W 000°31'713.8
2017-Dec-31 03:30N 37°44' W 000°26'713.8
2017-Dec-31 03:00N 37°50' W 000°21'713.9
2017-Dec-31 02:30N 37°56' W 000°16'713.9
2017-Dec-31 02:00N 38°01' W 000°11'2813.9
2017-Dec-31 00:01N 38°25' E 000°08'214.8
2017-Dec-30 23:53N 38°26' E 000°09'176 5.0
2017-Dec-29 12:46N 40°42' E 002°34'24615.9
2017-Dec-28 21:16N 43°04' E 007°05'416.0
2017-Dec-28 21:00N 43°07' E 007°09'815.7
2017-Dec-28 20:30N 43°11' E 007°18'815.5
2017-Dec-28 20:00N 43°16' E 007°26'816.1
2017-Dec-28 19:30N 43°21' E 007°35'3715.9
2017-Dec-28 17:09N 43°44' E 008°16'316.5
2017-Dec-28 16:59N 43°45' E 008°19'816.5
2017-Dec-28 16:30N 43°52' E 008°24'917.3
2017-Dec-28 16:01N 43°60' E 008°30'816.6
2017-Dec-28 15:30N 44°07' E 008°35'816.1
2017-Dec-28 15:00N 44°15' E 008°39'816.1
2017-Dec-28 14:30N 44°22' E 008°45'2 3.5
2017-Dec-28 14:00N 44°23' E 008°46'0 0.1
2017-Dec-28 13:30N 44°23' E 008°46'0 0.1
2017-Dec-28 13:00N 44°23' E 008°46'0 0.0
2017-Dec-28 12:30N 44°23' E 008°46'0 0.3
2017-Dec-28 12:00N 44°23' E 008°46'0 0.1
2017-Dec-28 11:30N 44°24' E 008°46'0 0.2
2017-Dec-28 11:00N 44°23' E 008°46'0 0.2
2017-Dec-28 10:27N 44°23' E 008°46'0 0.1
2017-Dec-28 10:00N 44°23' E 008°46'0 0.1
2017-Dec-28 09:27N 44°23' E 008°46'0 0.3
2017-Dec-28 09:00N 44°23' E 008°46'0 0.1
2017-Dec-28 08:30N 44°23' E 008°46'0 0.1
2017-Dec-28 08:00N 44°23' E 008°46'0 0.0
2017-Dec-28 07:30N 44°23' E 008°46'0 0.2
2017-Dec-28 07:00N 44°24' E 008°46'0 0.2
2017-Dec-28 06:30N 44°24' E 008°46'0 0.5
2017-Dec-28 06:00N 44°23' E 008°46'0 0.1
2017-Dec-28 05:30N 44°23' E 008°46'0 0.0
2017-Dec-28 05:00N 44°23' E 008°46'0 0.1
2017-Dec-28 04:30N 44°23' E 008°46'0 0.2
2017-Dec-28 04:00N 44°23' E 008°46'0 0.1
2017-Dec-28 03:30N 44°23' E 008°46'0 0.1
2017-Dec-28 03:00N 44°23' E 008°46'0 0.4
2017-Dec-28 02:30N 44°23' E 008°46'0 0.2
2017-Dec-28 02:00N 44°23' E 008°46'0 0.1
2017-Dec-28 01:30N 44°23' E 008°46'0 0.3
2017-Dec-28 01:00N 44°23' E 008°46'0 0.3
2017-Dec-28 00:30N 44°23' E 008°46'0 0.0
2017-Dec-28 00:00N 44°23' E 008°46'0 0.1
2017-Dec-27 23:24N 44°23' E 008°46'0 0.1
2017-Dec-27 23:00N 44°23' E 008°46'0 0.0
2017-Dec-27 22:30N 44°23' E 008°46'0 0.0
2017-Dec-27 22:00N 44°23' E 008°46'0 0.1
2017-Dec-27 21:30N 44°23' E 008°46'0 0.0
2017-Dec-27 21:00N 44°23' E 008°46'0 0.0
2017-Dec-27 20:30N 44°23' E 008°46'0 0.1
2017-Dec-27 20:00N 44°23' E 008°46'0 0.1
2017-Dec-27 19:30N 44°23' E 008°46'0 0.2
2017-Dec-27 19:00N 44°23' E 008°46'0 0.1
2017-Dec-27 18:30N 44°23' E 008°46'0 0.4
2017-Dec-27 18:00N 44°23' E 008°46'0 0.1
2017-Dec-27 17:30N 44°23' E 008°46'1 2.4
2017-Dec-27 17:00N 44°25' E 008°45'2 3.4
2017-Dec-27 16:30N 44°25' E 008°48'0 0.0
2017-Dec-27 16:00N 44°25' E 008°48'0 0.0
2017-Dec-27 15:30N 44°25' E 008°48'0 0.0
2017-Dec-27 15:00N 44°25' E 008°48'0 0.0
2017-Dec-27 14:30N 44°25' E 008°48'0 0.0
2017-Dec-27 14:00N 44°25' E 008°48'0 0.0
2017-Dec-27 13:30N 44°25' E 008°48'0 0.0
2017-Dec-27 13:00N 44°25' E 008°48'0 0.0
2017-Dec-27 12:30N 44°25' E 008°48'0 0.0
2017-Dec-27 12:00N 44°25' E 008°48'0 0.0
2017-Dec-27 11:30N 44°25' E 008°48'0 0.0
2017-Dec-27 11:00N 44°25' E 008°48'0 0.0
2017-Dec-27 10:30N 44°25' E 008°48'0 0.0
2017-Dec-27 10:00N 44°25' E 008°48'0 0.0
2017-Dec-27 09:30N 44°25' E 008°48'0 0.0
2017-Dec-27 09:00N 44°25' E 008°48'0 0.0
2017-Dec-27 08:30N 44°25' E 008°48'0 0.0
2017-Dec-27 08:00N 44°25' E 008°48'0 0.0
2017-Dec-27 07:30N 44°25' E 008°48'0 0.0
2017-Dec-27 07:00N 44°25' E 008°48'0 0.0
2017-Dec-27 06:30N 44°25' E 008°48'0 0.0
2017-Dec-27 05:54N 44°25' E 008°48'0 0.0
2017-Dec-27 05:30N 44°25' E 008°48'0 0.0
2017-Dec-27 05:00N 44°25' E 008°48'0 0.0
2017-Dec-27 04:30N 44°25' E 008°48'0 0.0
2017-Dec-27 04:00N 44°25' E 008°48'0 0.0
2017-Dec-27 03:30N 44°25' E 008°48'0 0.0
2017-Dec-27 03:00N 44°25' E 008°48'0 0.0
2017-Dec-27 02:30N 44°25' E 008°48'0 0.0
2017-Dec-27 02:00N 44°25' E 008°48'0 0.0
2017-Dec-27 01:30N 44°25' E 008°48'0 0.0
2017-Dec-27 01:00N 44°25' E 008°48'0 0.0
2017-Dec-27 00:27N 44°25' E 008°48'0 0.0
2017-Dec-27 00:00N 44°25' E 008°48'0 0.0
2017-Dec-26 23:30N 44°25' E 008°48'0 0.0
2017-Dec-26 23:00N 44°25' E 008°48'0 0.0
2017-Dec-26 22:30N 44°25' E 008°48'0 0.0
2017-Dec-26 22:00N 44°25' E 008°48'0 0.0
2017-Dec-26 21:30N 44°25' E 008°48'0 0.0
2017-Dec-26 21:00N 44°25' E 008°48'0 0.0
2017-Dec-26 20:30N 44°25' E 008°48'0 0.0
2017-Dec-26 20:00N 44°25' E 008°48'0 0.0
2017-Dec-26 19:30N 44°25' E 008°48'0 0.0
2017-Dec-26 19:00N 44°25' E 008°48'0 0.0
2017-Dec-26 18:30N 44°25' E 008°48'0 0.0
2017-Dec-26 18:00N 44°25' E 008°48'0 0.0
2017-Dec-26 17:30N 44°25' E 008°48'0 0.0
2017-Dec-26 17:00N 44°25' E 008°48'0 0.0
2017-Dec-26 16:30N 44°25' E 008°48'1 3.0
2017-Dec-26 16:01N 44°25' E 008°46'2 3.7
2017-Dec-26 15:30N 44°24' E 008°44'2 4.1
2017-Dec-26 15:00N 44°22' E 008°43'2 3.1
2017-Dec-26 14:30N 44°20' E 008°43'0 0.2
2017-Dec-26 14:01N 44°20' E 008°43'0 0.3
2017-Dec-26 13:31N 44°20' E 008°43'0 0.3
2017-Dec-26 13:01N 44°21' E 008°43'0 0.6
2017-Dec-26 12:30N 44°20' E 008°43'2 3.6
2017-Dec-26 12:00N 44°19' E 008°44'4 8.0
2017-Dec-26 11:30N 44°16' E 008°48'3 6.2
2017-Dec-26 11:01N 44°14' E 008°51'0 0.9
2017-Dec-26 10:30N 44°14' E 008°50'3 5.4
2017-Dec-26 10:00N 44°17' E 008°51'2 3.2
2017-Dec-26 09:30N 44°17' E 008°53'1 1.8
2017-Dec-26 09:00N 44°16' E 008°53'1 1.8
2017-Dec-26 08:30N 44°15' E 008°53'1 1.9
2017-Dec-26 08:01N 44°14' E 008°52'1 1.8
2017-Dec-26 07:30N 44°13' E 008°52'1 2.4
2017-Dec-26 07:00N 44°12' E 008°52'2 3.3
2017-Dec-26 06:30N 44°14' E 008°51'  
Track history (hours):
 
Tides and Currents Weather Stations Pressure Air Temp Water Temp Dewpoint Dewpoint Depression Visibility Wind Speed Wind Dir Waves Ship Positions

Maersk Lota

Last reported at 2018-Jan-05 06:03 UTC. Time now 2018-Jan-18 04:07 UTC.
Position N 26°11' W 015°04'.
Warning: this ship's position is 12 days out of date.

Length 300 m; draft 13 m.

Type: Ship (hazmat cat A). MMSI: 566383000.

Date/timePositionNaut miles runAvg speedWind from/ knotsBaromVisibWave heightAir tempDewpointWater temp
2018-Jan-05 06:03N 26°11' W 015°04'121.0
2018-Jan-05 06:00N 26°11' W 015°03'1120.8
2018-Jan-05 05:30N 26°20' W 014°57'1520.5
2018-Jan-05 04:47N 26°32' W 014°47'620.5
2018-Jan-05 04:30N 26°37' W 014°44'1120.5
2018-Jan-05 03:56N 26°47' W 014°37'1720.4
2018-Jan-05 03:07N 27°01' W 014°26'320.7
2018-Jan-05 02:59N 27°03' W 014°24'1020.7
2018-Jan-05 02:31N 27°11' W 014°18'1020.8
2018-Jan-05 02:00N 27°19' W 014°11'1020.8
2018-Jan-05 01:30N 27°28' W 014°04'1020.6
2018-Jan-05 01:00N 27°36' W 013°58'1020.6
2018-Jan-05 00:30N 27°45' W 013°51'1020.5
2018-Jan-05 00:00N 27°53' W 013°45'1020.6
2018-Jan-04 23:30N 28°02' W 013°38'1020.6
2018-Jan-04 23:00N 28°10' W 013°32'1020.6
2018-Jan-04 22:30N 28°19' W 013°25'1020.6
2018-Jan-04 22:00N 28°27' W 013°18'1020.6
2018-Jan-04 21:31N 28°35' W 013°11'1020.6
2018-Jan-04 21:00N 28°44' W 013°04'1020.4
2018-Jan-04 20:30N 28°52' W 012°58'1020.3
2018-Jan-04 20:00N 29°00' W 012°51'1020.5
2018-Jan-04 19:30N 29°09' W 012°44'1020.3
2018-Jan-04 19:00N 29°17' W 012°38'1019.9
2018-Jan-04 18:30N 29°25' W 012°31'1019.6
2018-Jan-04 18:00N 29°33' W 012°25'1019.5
2018-Jan-04 17:30N 29°41' W 012°18'1019.8
2018-Jan-04 17:00N 29°50' W 012°12'1019.7
2018-Jan-04 16:30N 29°58' W 012°05'1019.5
2018-Jan-04 16:00N 30°05' W 011°58'1019.5
2018-Jan-04 15:31N 30°13' W 011°52'1019.6
2018-Jan-04 15:01N 30°21' W 011°46'1019.6
2018-Jan-04 14:30N 30°30' W 011°39'1019.7
2018-Jan-04 14:00N 30°38' W 011°33'1019.5
2018-Jan-04 13:30N 30°45' W 011°26'1019.5
2018-Jan-04 13:00N 30°53' W 011°19'41919.5
2018-Jan-03 15:28N 35°58' W 005°34'715.9
2018-Jan-03 15:00N 36°01' W 005°26'611.9
2018-Jan-03 14:30N 36°06' W 005°24'1 0.2
2018-Jan-03 06:11N 36°07' W 005°25'1 3.3
2018-Jan-03 06:00N 36°07' W 005°25'1 1.0
2018-Jan-03 05:28N 36°07' W 005°24'0 0.1
2018-Jan-03 04:58N 36°07' W 005°24'0 0.1
2018-Jan-03 04:28N 36°07' W 005°24'0 0.0
2018-Jan-03 03:58N 36°07' W 005°24'0 0.0
2018-Jan-03 03:28N 36°07' W 005°24'0 0.1
2018-Jan-03 02:58N 36°07' W 005°24'0 0.2
2018-Jan-03 02:28N 36°07' W 005°24'0 0.3
2018-Jan-03 01:58N 36°07' W 005°24'0 0.1
2018-Jan-03 01:28N 36°07' W 005°24'0 0.1
2018-Jan-03 00:58N 36°07' W 005°24'0 0.1
2018-Jan-03 00:16N 36°07' W 005°24'0 0.0
2018-Jan-02 23:16N 36°07' W 005°24'0 0.1
2018-Jan-02 22:46N 36°07' W 005°24'0 0.0
2018-Jan-02 22:30N 36°07' W 005°24'0 0.0
2018-Jan-02 22:00N 36°07' W 005°24'0 0.0
2018-Jan-02 21:30N 36°07' W 005°24'0 0.2
2018-Jan-02 21:00N 36°07' W 005°24'1 1.8
2018-Jan-02 20:29N 36°06' W 005°24'3 6.8
2018-Jan-02 20:00N 36°03' W 005°23'611.5
2018-Jan-02 19:30N 35°58' W 005°26'6 0.1
2018-Jan-01 03:03N 35°55' W 005°32'1 3.8
2018-Jan-01 02:46N 35°54' W 005°34'0 0.4
2018-Jan-01 02:28N 35°54' W 005°34'4 2.1
2018-Jan-01 00:30N 35°58' W 005°31'22 6.2
2017-Dec-31 21:00N 36°03' W 005°05'20714.2
2017-Dec-31 06:30N 37°14' W 001°03'1214.4
2017-Dec-31 05:39N 37°22' W 000°52'314.7
2017-Dec-31 05:26N 37°24' W 000°48'614.6
2017-Dec-31 05:00N 37°28' W 000°43'714.3
2017-Dec-31 04:30N 37°33' W 000°36'713.9
2017-Dec-31 04:00N 37°38' W 000°31'713.8
2017-Dec-31 03:30N 37°44' W 000°26'713.8
2017-Dec-31 03:00N 37°50' W 000°21'713.9
2017-Dec-31 02:30N 37°56' W 000°16'713.9
2017-Dec-31 02:00N 38°01' W 000°11'2813.9
2017-Dec-31 00:01N 38°25' E 000°08'214.8
2017-Dec-30 23:53N 38°26' E 000°09'176 5.0
2017-Dec-29 12:46N 40°42' E 002°34'24615.9
2017-Dec-28 21:16N 43°04' E 007°05'416.0
2017-Dec-28 21:00N 43°07' E 007°09'815.7
2017-Dec-28 20:30N 43°11' E 007°18'815.5
2017-Dec-28 20:00N 43°16' E 007°26'816.1
2017-Dec-28 19:30N 43°21' E 007°35'3715.9
2017-Dec-28 17:09N 43°44' E 008°16'316.5
2017-Dec-28 16:59N 43°45' E 008°19'816.5
2017-Dec-28 16:30N 43°52' E 008°24'917.3
2017-Dec-28 16:01N 43°60' E 008°30'816.6
2017-Dec-28 15:30N 44°07' E 008°35'816.1
2017-Dec-28 15:00N 44°15' E 008°39'816.1
2017-Dec-28 14:30N 44°22' E 008°45'2 3.5
2017-Dec-28 14:00N 44°23' E 008°46'0 0.1
2017-Dec-28 13:30N 44°23' E 008°46'0 0.1
2017-Dec-28 13:00N 44°23' E 008°46'0 0.0
2017-Dec-28 12:30N 44°23' E 008°46'0 0.3
2017-Dec-28 12:00N 44°23' E 008°46'0 0.1
2017-Dec-28 11:30N 44°24' E 008°46'0 0.2
2017-Dec-28 11:00N 44°23' E 008°46'0 0.2
2017-Dec-28 10:27N 44°23' E 008°46'0 0.1
2017-Dec-28 10:00N 44°23' E 008°46'0 0.1
2017-Dec-28 09:27N 44°23' E 008°46'0 0.3
2017-Dec-28 09:00N 44°23' E 008°46'0 0.1
2017-Dec-28 08:30N 44°23' E 008°46'0 0.1
2017-Dec-28 08:00N 44°23' E 008°46'0 0.0
2017-Dec-28 07:30N 44°23' E 008°46'0 0.2
2017-Dec-28 07:00N 44°24' E 008°46'0 0.2
2017-Dec-28 06:30N 44°24' E 008°46'0 0.5
2017-Dec-28 06:00N 44°23' E 008°46'0 0.1
2017-Dec-28 05:30N 44°23' E 008°46'0 0.0
2017-Dec-28 05:00N 44°23' E 008°46'0 0.1
2017-Dec-28 04:30N 44°23' E 008°46'0 0.2
2017-Dec-28 04:00N 44°23' E 008°46'0 0.1
2017-Dec-28 03:30N 44°23' E 008°46'0 0.1
2017-Dec-28 03:00N 44°23' E 008°46'0 0.4
2017-Dec-28 02:30N 44°23' E 008°46'0 0.2
2017-Dec-28 02:00N 44°23' E 008°46'0 0.1
2017-Dec-28 01:30N 44°23' E 008°46'0 0.3
2017-Dec-28 01:00N 44°23' E 008°46'0 0.3
2017-Dec-28 00:30N 44°23' E 008°46'0 0.0
2017-Dec-28 00:00N 44°23' E 008°46'0 0.1
2017-Dec-27 23:24N 44°23' E 008°46'0 0.1
2017-Dec-27 23:00N 44°23' E 008°46'0 0.0
2017-Dec-27 22:30N 44°23' E 008°46'0 0.0
2017-Dec-27 22:00N 44°23' E 008°46'0 0.1
2017-Dec-27 21:30N 44°23' E 008°46'0 0.0
2017-Dec-27 21:00N 44°23' E 008°46'0 0.0
2017-Dec-27 20:30N 44°23' E 008°46'0 0.1
2017-Dec-27 20:00N 44°23' E 008°46'0 0.1
2017-Dec-27 19:30N 44°23' E 008°46'0 0.2
2017-Dec-27 19:00N 44°23' E 008°46'0 0.1
2017-Dec-27 18:30N 44°23' E 008°46'0 0.4
2017-Dec-27 18:00N 44°23' E 008°46'0 0.1
2017-Dec-27 17:30N 44°23' E 008°46'1 2.4
2017-Dec-27 17:00N 44°25' E 008°45'2 3.4
2017-Dec-27 16:30N 44°25' E 008°48'0 0.0
2017-Dec-27 16:00N 44°25' E 008°48'0 0.0
2017-Dec-27 15:30N 44°25' E 008°48'0 0.0
2017-Dec-27 15:00N 44°25' E 008°48'0 0.0
2017-Dec-27 14:30N 44°25' E 008°48'0 0.0
2017-Dec-27 14:00N 44°25' E 008°48'0 0.0
2017-Dec-27 13:30N 44°25' E 008°48'0 0.0
2017-Dec-27 13:00N 44°25' E 008°48'0 0.0
2017-Dec-27 12:30N 44°25' E 008°48'0 0.0
2017-Dec-27 12:00N 44°25' E 008°48'0 0.0
2017-Dec-27 11:30N 44°25' E 008°48'0 0.0
2017-Dec-27 11:00N 44°25' E 008°48'0 0.0
2017-Dec-27 10:30N 44°25' E 008°48'0 0.0
2017-Dec-27 10:00N 44°25' E 008°48'0 0.0
2017-Dec-27 09:30N 44°25' E 008°48'0 0.0
2017-Dec-27 09:00N 44°25' E 008°48'0 0.0
2017-Dec-27 08:30N 44°25' E 008°48'0 0.0
2017-Dec-27 08:00N 44°25' E 008°48'0 0.0
2017-Dec-27 07:30N 44°25' E 008°48'0 0.0
2017-Dec-27 07:00N 44°25' E 008°48'0 0.0
2017-Dec-27 06:30N 44°25' E 008°48'0 0.0
2017-Dec-27 05:54N 44°25' E 008°48'0 0.0
2017-Dec-27 05:30N 44°25' E 008°48'0 0.0
2017-Dec-27 05:00N 44°25' E 008°48'0 0.0
2017-Dec-27 04:30N 44°25' E 008°48'0 0.0
2017-Dec-27 04:00N 44°25' E 008°48'0 0.0
2017-Dec-27 03:30N 44°25' E 008°48'0 0.0
2017-Dec-27 03:00N 44°25' E 008°48'0 0.0
2017-Dec-27 02:30N 44°25' E 008°48'0 0.0
2017-Dec-27 02:00N 44°25' E 008°48'0 0.0
2017-Dec-27 01:30N 44°25' E 008°48'0 0.0
2017-Dec-27 01:00N 44°25' E 008°48'0 0.0
2017-Dec-27 00:27N 44°25' E 008°48'0 0.0
2017-Dec-27 00:00N 44°25' E 008°48'0 0.0
2017-Dec-26 23:30N 44°25' E 008°48'0 0.0
2017-Dec-26 23:00N 44°25' E 008°48'0 0.0
2017-Dec-26 22:30N 44°25' E 008°48'0 0.0
2017-Dec-26 22:00N 44°25' E 008°48'0 0.0
2017-Dec-26 21:30N 44°25' E 008°48'0 0.0
2017-Dec-26 21:00N 44°25' E 008°48'0 0.0
2017-Dec-26 20:30N 44°25' E 008°48'0 0.0
2017-Dec-26 20:00N 44°25' E 008°48'0 0.0
2017-Dec-26 19:30N 44°25' E 008°48'0 0.0
2017-Dec-26 19:00N 44°25' E 008°48'0 0.0
2017-Dec-26 18:30N 44°25' E 008°48'0 0.0
2017-Dec-26 18:00N 44°25' E 008°48'0 0.0
2017-Dec-26 17:30N 44°25' E 008°48'0 0.0
2017-Dec-26 17:00N 44°25' E 008°48'0 0.0
2017-Dec-26 16:30N 44°25' E 008°48'1 3.0
2017-Dec-26 16:01N 44°25' E 008°46'2 3.7
2017-Dec-26 15:30N 44°24' E 008°44'2 4.1
2017-Dec-26 15:00N 44°22' E 008°43'2 3.1
2017-Dec-26 14:30N 44°20' E 008°43'0 0.2
2017-Dec-26 14:01N 44°20' E 008°43'0 0.3
2017-Dec-26 13:31N 44°20' E 008°43'0 0.3
2017-Dec-26 13:01N 44°21' E 008°43'0 0.6
2017-Dec-26 12:30N 44°20' E 008°43'2 3.6
2017-Dec-26 12:00N 44°19' E 008°44'4 8.0
2017-Dec-26 11:30N 44°16' E 008°48'3 6.2
2017-Dec-26 11:01N 44°14' E 008°51'0 0.9
2017-Dec-26 10:30N 44°14' E 008°50'3 5.4
2017-Dec-26 10:00N 44°17' E 008°51'2 3.2
2017-Dec-26 09:30N 44°17' E 008°53'1 1.8
2017-Dec-26 09:00N 44°16' E 008°53'1 1.8
2017-Dec-26 08:30N 44°15' E 008°53'1 1.9
2017-Dec-26 08:01N 44°14' E 008°52'1 1.8
2017-Dec-26 07:30N 44°13' E 008°52'1 2.4
2017-Dec-26 07:00N 44°12' E 008°52'2 3.3
2017-Dec-26 06:30N 44°14' E 008°51'  

Dump ship's entire track history